createdAt,value
2017-03-11T00:00:14.457Z,91.61
2017-03-11T00:05:11.370Z,92.09
2017-03-11T00:10:07.777Z,91.52
2017-03-11T00:15:04.060Z,92.33
2017-03-11T00:20:00.971Z,94.03
2017-03-11T00:24:58.452Z,94.32
2017-03-11T00:29:55.037Z,95.17
2017-03-11T00:34:51.961Z,95.55
2017-03-11T00:39:49.708Z,95.84
2017-03-11T00:44:46.020Z,96.12
2017-03-11T00:49:42.442Z,97.12
2017-03-11T00:54:38.438Z,96.45
2017-03-11T00:59:35.299Z,96.22
2017-03-11T01:04:32.571Z,95.55
2017-03-11T01:09:29.655Z,95.74
2017-03-11T01:14:26.221Z,95.65
2017-03-11T01:19:25.700Z,95.17
2017-03-11T01:24:21.383Z,94.98
2017-03-11T01:29:18.053Z,94.89
2017-03-11T01:34:14.881Z,95.17
2017-03-11T01:39:11.427Z,95.55
2017-03-11T01:44:09.199Z,95.17
2017-03-11T01:49:06.522Z,95.46
2017-03-11T01:54:02.744Z,95.55
2017-03-11T01:58:59.822Z,96.03
2017-03-11T02:03:56.381Z,95.17
2017-03-11T02:08:52.936Z,96.03
2017-03-11T02:13:49.924Z,94.70
2017-03-11T02:18:46.564Z,94.51
2017-03-11T02:23:42.549Z,94.56
2017-03-11T02:28:39.028Z,94.60
2017-03-11T02:33:35.473Z,94.42
2017-03-11T02:38:31.781Z,94.98
2017-03-11T02:43:27.942Z,94.42
2017-03-11T02:48:24.183Z,95.07
2017-03-11T02:53:21.673Z,94.56
2017-03-11T02:58:17.663Z,95.65
2017-03-11T03:03:13.819Z,95.60
2017-03-11T03:08:10.165Z,96.17
2017-03-11T03:13:06.862Z,96.45
2017-03-11T03:18:03.241Z,96.17
2017-03-11T03:22:59.680Z,95.88
2017-03-11T03:27:55.986Z,94.84
2017-03-11T03:32:52.224Z,95.36
2017-03-11T03:37:48.823Z,94.56
2017-03-11T03:42:45.105Z,94.65
2017-03-11T03:47:41.885Z,94.42
2017-03-11T03:52:38.366Z,95.69
2017-03-11T03:57:34.726Z,96.41
2017-03-11T04:02:31.121Z,95.60
2017-03-11T04:07:27.467Z,96.17
2017-03-11T04:12:24.132Z,97.21
2017-03-11T04:17:20.555Z,96.26
2017-03-11T04:22:17.267Z,96.08
2017-03-11T04:27:13.648Z,96.08
2017-03-11T04:32:10.107Z,96.83
2017-03-11T04:37:07.329Z,96.92
2017-03-11T04:42:03.752Z,96.92
2017-03-11T04:47:00.347Z,95.50
2017-03-11T04:51:56.620Z,97.02
2017-03-11T04:56:53.070Z,96.73
2017-03-11T05:01:49.740Z,97.40
2017-03-11T05:06:46.095Z,97.12
2017-03-11T05:11:43.634Z,97.40
2017-03-11T05:16:39.933Z,97.12
2017-03-11T05:21:37.143Z,96.45
2017-03-11T05:26:34.251Z,96.55
2017-03-11T05:31:31.170Z,98.63
2017-03-11T05:36:27.579Z,99.63
2017-03-11T05:41:23.773Z,99.99
2017-03-11T05:46:20.750Z,99.25
2017-03-11T05:51:17.455Z,99.25
2017-03-11T05:56:13.892Z,99.25
2017-03-11T06:01:10.285Z,99.99
2017-03-11T06:06:07.393Z,99.99
2017-03-11T06:11:03.951Z,99.99
2017-03-11T06:16:00.554Z,99.99
2017-03-11T06:20:57.092Z,99.99
2017-03-11T06:25:53.460Z,99.99
2017-03-11T06:30:51.219Z,99.99
2017-03-11T06:35:47.685Z,99.91
2017-03-11T06:40:43.889Z,99.99
2017-03-11T06:45:40.689Z,99.99
2017-03-11T06:50:37.161Z,98.73
2017-03-11T06:55:33.820Z,99.49
2017-03-11T07:00:30.649Z,99.39
2017-03-11T07:05:27.290Z,99.63
2017-03-11T07:10:24.039Z,98.92
2017-03-11T07:15:20.739Z,97.50
2017-03-11T07:20:18.503Z,94.98
2017-03-11T07:25:15.274Z,91.14
2017-03-11T07:30:12.115Z,87.86
2017-03-11T07:35:09.155Z,87.67
2017-03-11T07:40:06.814Z,84.24
2017-03-11T07:45:03.640Z,86.72
2017-03-11T07:50:00.374Z,87.67
2017-03-11T07:54:57.431Z,88.34
2017-03-11T07:59:53.992Z,86.10
2017-03-11T08:04:50.821Z,84.01
2017-03-11T08:09:47.592Z,84.29
2017-03-11T08:14:44.260Z,83.53
2017-03-11T08:19:41.258Z,84.24
2017-03-11T08:24:38.168Z,82.81
2017-03-11T08:29:34.603Z,84.24
2017-03-11T08:34:31.471Z,82.95
2017-03-11T08:39:29.385Z,79.85
2017-03-11T08:44:25.945Z,74.21
2017-03-11T08:49:22.637Z,74.88
2017-03-11T08:54:19.726Z,75.85
2017-03-11T08:59:16.613Z,78.00
2017-03-11T09:04:12.855Z,79.33
2017-03-11T09:09:09.266Z,78.96
2017-03-11T09:14:06.021Z,78.42
2017-03-11T09:19:02.779Z,76.42
2017-03-11T09:23:59.126Z,72.94
2017-03-11T09:28:56.388Z,73.17
2017-03-11T09:33:53.198Z,67.42
2017-03-11T09:38:50.248Z,66.18
2017-03-11T09:43:47.324Z,65.04
2017-03-11T09:48:44.565Z,69.10
2017-03-11T09:53:41.395Z,67.61
2017-03-11T09:58:38.754Z,65.13
2017-03-11T10:03:35.328Z,66.47
2017-03-11T10:08:31.865Z,65.80
2017-03-11T10:13:28.744Z,65.36
2017-03-11T10:18:25.685Z,63.64
2017-03-11T10:23:22.634Z,63.00
2017-03-11T10:28:19.644Z,64.69
2017-03-11T10:33:16.025Z,63.48
2017-03-11T10:38:13.026Z,61.79
2017-03-11T10:43:09.711Z,61.51
2017-03-11T10:48:07.081Z,59.41
2017-03-11T10:53:04.793Z,60.74
2017-03-11T10:58:01.558Z,59.72
2017-03-11T11:02:58.452Z,56.40
2017-03-11T11:07:56.150Z,58.22
2017-03-11T11:12:53.971Z,54.90
2017-03-11T11:17:51.383Z,51.70
2017-03-11T11:22:48.975Z,47.56
2017-03-11T11:27:46.366Z,44.68
2017-03-11T11:32:43.740Z,47.61
2017-03-11T11:37:41.279Z,46.05
2017-03-11T11:42:38.016Z,41.43
2017-03-11T11:47:35.153Z,38.01
2017-03-11T11:52:31.988Z,42.52
2017-03-11T11:57:28.987Z,44.66
2017-03-11T12:02:25.672Z,43.70
2017-03-11T12:07:22.686Z,44.13
2017-03-11T12:12:18.470Z,47.80
2017-03-11T12:17:14.863Z,46.36
2017-03-11T12:22:11.338Z,48.75
2017-03-11T12:27:07.275Z,50.52
2017-03-11T12:32:02.633Z,52.03
2017-03-11T12:36:59.169Z,51.65
2017-03-11T12:41:55.552Z,50.50
2017-03-11T12:46:52.038Z,50.50
2017-03-11T12:51:48.734Z,49.80
2017-03-11T12:56:45.166Z,47.30
2017-03-11T13:01:41.839Z,47.37
2017-03-11T13:06:39.113Z,46.53
2017-03-11T13:11:35.744Z,46.89
2017-03-11T13:16:33.493Z,48.90
2017-03-11T13:21:29.963Z,48.93
2017-03-11T13:26:26.915Z,45.57
2017-03-11T13:31:24.073Z,44.26
2017-03-11T13:36:20.921Z,44.81
2017-03-11T13:41:17.037Z,46.58
2017-03-11T13:46:13.683Z,47.25
2017-03-11T13:51:10.097Z,46.66
2017-03-11T13:56:06.983Z,46.41
2017-03-11T14:01:03.623Z,48.88
2017-03-11T14:06:00.001Z,50.31
2017-03-11T14:10:56.398Z,49.55
2017-03-11T14:15:53.875Z,49.14
2017-03-11T14:20:51.341Z,48.88
2017-03-11T14:25:48.377Z,47.80
2017-03-11T14:30:44.600Z,47.68
2017-03-11T14:35:40.723Z,48.71
2017-03-11T14:40:37.747Z,48.09
2017-03-11T14:45:34.468Z,45.89
2017-03-11T14:50:30.684Z,46.34
2017-03-11T14:55:27.565Z,45.87
2017-03-11T15:00:24.695Z,45.96
2017-03-11T15:05:21.466Z,46.06
2017-03-11T15:10:17.787Z,45.96
2017-03-11T15:15:14.068Z,45.67
2017-03-11T15:20:10.522Z,46.25
2017-03-11T15:25:07.007Z,48.25
2017-03-11T15:30:03.485Z,48.93
2017-03-11T15:35:00.429Z,46.80
2017-03-11T15:39:57.062Z,47.34
2017-03-11T15:44:55.873Z,47.34
2017-03-11T15:49:51.521Z,47.54
2017-03-11T15:54:48.170Z,48.30
2017-03-11T15:59:44.854Z,47.34
2017-03-11T16:04:41.506Z,46.20
2017-03-11T16:09:38.308Z,47.16
2017-03-11T16:14:35.586Z,48.08
2017-03-11T16:19:32.403Z,47.61
2017-03-11T16:24:29.094Z,48.37
2017-03-11T16:29:26.221Z,49.23
2017-03-11T16:34:22.855Z,51.62
2017-03-11T16:39:19.524Z,53.41
2017-03-11T16:44:15.982Z,54.83
2017-03-11T16:49:12.386Z,55.31
2017-03-11T16:54:09.082Z,56.36
2017-03-11T16:59:05.462Z,57.19
2017-03-11T17:04:02.984Z,58.52
2017-03-11T17:08:59.581Z,58.43
2017-03-11T17:13:56.255Z,59.00
2017-03-11T17:18:52.883Z,59.06
2017-03-11T17:23:50.022Z,59.16
2017-03-11T17:28:46.784Z,60.02
2017-03-11T17:33:42.942Z,60.69
2017-03-11T17:38:39.161Z,61.25
2017-03-11T17:43:35.754Z,61.16
2017-03-11T17:48:32.522Z,62.18
2017-03-11T17:53:29.034Z,63.23
2017-03-11T17:58:25.688Z,62.46
2017-03-11T18:03:22.041Z,62.37
2017-03-11T18:08:18.825Z,62.18
2017-03-11T18:13:15.644Z,64.15
2017-03-11T18:18:12.065Z,63.96
2017-03-11T18:23:08.677Z,64.81
2017-03-11T18:28:06.857Z,65.48
2017-03-11T18:33:03.083Z,66.97
2017-03-11T18:37:59.871Z,67.07
2017-03-11T18:42:56.148Z,67.73
2017-03-11T18:47:52.270Z,68.49
2017-03-11T18:52:49.330Z,69.82
2017-03-11T18:57:45.977Z,70.45
2017-03-11T19:02:42.320Z,71.31
2017-03-11T19:07:38.786Z,71.02
2017-03-11T19:12:35.501Z,71.69
2017-03-11T19:17:31.791Z,70.54
2017-03-11T19:22:28.537Z,71.12
2017-03-11T19:27:24.934Z,71.22
2017-03-11T19:32:21.453Z,70.36
2017-03-11T19:37:18.701Z,69.31
2017-03-11T19:42:15.316Z,69.60
2017-03-11T19:47:11.848Z,69.21
2017-03-11T19:52:08.417Z,69.31
2017-03-11T19:57:05.863Z,69.60
2017-03-11T20:02:02.269Z,69.60
2017-03-11T20:06:59.239Z,70.93
2017-03-11T20:11:56.016Z,70.64
2017-03-11T20:16:52.203Z,71.12
2017-03-11T20:21:49.037Z,71.12
2017-03-11T20:26:45.618Z,72.03
2017-03-11T20:31:41.869Z,72.32
2017-03-11T20:36:38.987Z,72.89
2017-03-11T20:41:35.220Z,72.99
2017-03-11T20:46:32.134Z,73.93
2017-03-11T20:51:28.599Z,74.79
2017-03-11T20:56:25.360Z,74.22
2017-03-11T21:01:21.439Z,74.94
2017-03-11T21:06:17.870Z,75.55
2017-03-11T21:11:14.476Z,75.60
2017-03-11T21:16:11.088Z,75.99
2017-03-11T21:21:07.901Z,76.46
2017-03-11T21:26:04.419Z,77.89
2017-03-11T21:31:00.841Z,77.70
2017-03-11T21:35:58.723Z,77.70
2017-03-11T21:40:55.139Z,79.03
2017-03-11T21:45:56.222Z,79.12
2017-03-11T21:50:51.682Z,80.45
2017-03-11T21:55:48.082Z,80.26
2017-03-11T22:00:44.502Z,79.69
2017-03-11T22:05:41.502Z,80.16
2017-03-11T22:10:37.794Z,80.55
2017-03-11T22:15:34.464Z,81.78
2017-03-11T22:20:30.943Z,81.26
2017-03-11T22:25:27.383Z,82.03
2017-03-11T22:30:23.604Z,82.88
2017-03-11T22:35:20.540Z,83.36
2017-03-11T22:40:17.124Z,83.54
2017-03-11T22:45:13.643Z,83.92
2017-03-11T22:50:10.285Z,84.01
2017-03-11T22:55:07.046Z,84.11
2017-03-11T23:00:03.484Z,83.73
2017-03-11T23:05:00.148Z,84.30
2017-03-11T23:09:56.767Z,84.40
2017-03-11T23:14:53.245Z,84.11
2017-03-11T23:19:49.714Z,84.59
2017-03-11T23:24:46.386Z,84.49
2017-03-11T23:29:42.757Z,84.40
2017-03-11T23:34:39.482Z,84.30
2017-03-11T23:39:35.948Z,84.59
2017-03-11T23:44:32.406Z,84.01
2017-03-11T23:49:29.670Z,85.35
2017-03-11T23:54:26.246Z,85.16
2017-03-11T23:59:22.604Z,85.59
